aviador You're here:

LFSB Decoded Metar

MULHOUSE in FRANCE
Report Time2017-11-22 05:00:00
UTC Time2017-11-22 05:23:39
Flight Rules vfr VFR
Wind160° at 05 kt
W.Decomp.*RWY 15: 4.9 kt HW 0.8 kt RCW
RWY 08: 1.0 kt HW 4.9 kt RCW
W.Rank160° ranks 7
Current wind is above 160° avg. (4.5)
Visibility9999 m
Phenomena:N/A
Clouds:N/A
Expected CloudBase > 400 ft AGL from Temp-Dew spread
CeilingNone
Temp02°C (ISA -11)
Dew Point01°C (93% RH)
AAT-1.6°C
QNH1015 hPa
Density Alt-449 ft
Elevation889 ft
Report Wrong Elevation
Raw Report
LFSB 220500Z 16005KT 130V200 CAVOK 02/01 Q1015 NOSIG=

Extra information for LFSB:More info

Metar Taf Metar & Taf Last 4 Metars F.Rules Stats Wind Profile Meteogram Temp Stats Airport Information Weather charts Add Link Nearby VenuesMetar ALERT Operation Metar Decoded Social comments